Cortez, Colorado
Current Conditions -  °F | °C
As of 12:53 AM on Wednesday 22 Oct 2014 (Local Time) from KCEZ Reporting Station
Broken Clouds Broken Clouds  
Wind Chill: 47°   Ceiling: 8500
Heat Index: 47°   Visibility: 10mi
Dew Point: 42°   Wind: 3mph
Humidity: 83%   Direction: 60°ENE
Pressure: 30.1"   Gusts: NA
Location:  37.35°N, 108.55°W
Report Text: KCEZ 220653Z AUTO 06003KT 10SM BKN085 08/06 A3010 RMK AO2 SLP143 T00830056 402000083
Loading
Personal Weather Stations






























Interactive Weather Map
Tropical Storm Tracking
New forecast layout! Learn more

10-Day Weather Forecast

Advertisements
Track Severe Weather on mobile